< < Back
Terminal Aerodrome Forecast


Current Version              Previous Versions:   1  2  3  4  5  6  7  8  9  

Terminal Aerodrome Forecast

197
FTUS42 KCAE 301400 AAA
TAFCAE
TAF AMD
KCAE 301448Z 3015/3112 05005KT P6SM SCT060=

Latest METAR

394
SAUS80 KWBC 310300
MTRCAE
METAR KCAE 310256Z 10004KT 10SM SCT090 SCT200 24/19 A3005 RMK AO2 SLP173
T02440189 51016


USA.gov is the U.S. government's official web portal to all federal, state and local government web resources and services.